sensor_id;sensor_type;location;lat;lon;timestamp;P1;durP1;ratioP1;P2;durP2;ratioP2
40052;SDS011;25758;48.200;16.338;2022-12-20T13:05:52;69.83;;;23.60;;
40052;SDS011;25758;48.200;16.338;2022-12-20T13:08:18;74.37;;;24.73;;
40052;SDS011;25758;48.200;16.338;2022-12-20T13:13:13;75.03;;;22.77;;
40052;SDS011;25758;48.200;16.338;2022-12-20T13:15:48;70.90;;;25.13;;
40052;SDS011;25758;48.200;16.338;2022-12-20T13:21:15;77.87;;;25.37;;
40052;SDS011;25758;48.200;16.338;2022-12-20T13:23:43;77.03;;;25.03;;
40052;SDS011;25758;48.200;16.338;2022-12-20T13:26:41;73.73;;;24.37;;
40052;SDS011;25758;48.200;16.338;2022-12-20T13:29:26;65.97;;;22.03;;
40052;SDS011;25758;48.200;16.338;2022-12-20T13:31:58;73.53;;;21.73;;
40052;SDS011;25758;48.200;16.338;2022-12-20T13:37:28;69.93;;;22.88;;
40052;SDS011;25758;48.200;16.338;2022-12-20T13:40:22;72.30;;;24.07;;
40052;SDS011;25758;48.200;16.338;2022-12-20T13:42:56;56.63;;;22.00;;
40052;SDS011;25758;48.200;16.338;2022-12-20T13:45:26;50.33;;;18.53;;
40052;SDS011;25758;48.200;16.338;2022-12-20T13:47:57;57.30;;;21.67;;
40052;SDS011;25758;48.200;16.338;2022-12-20T13:50:30;51.07;;;18.77;;
40052;SDS011;25758;48.200;16.338;2022-12-20T13:52:57;55.20;;;20.50;;
40052;SDS011;25758;48.200;16.338;2022-12-20T13:55:25;50.43;;;18.73;;
40052;SDS011;25758;48.200;16.338;2022-12-20T13:58:03;48.83;;;17.20;;
40052;SDS011;25758;48.200;16.338;2022-12-20T14:00:30;42.90;;;17.47;;
40052;SDS011;25758;48.200;16.338;2022-12-20T14:02:56;52.97;;;18.33;;
40052;SDS011;25758;48.200;16.338;2022-12-20T14:05:22;38.80;;;13.83;;
40052;SDS011;25758;48.200;16.338;2022-12-20T14:08:09;58.77;;;19.60;;
40052;SDS011;25758;48.200;16.338;2022-12-20T14:10:39;45.90;;;18.17;;
40052;SDS011;25758;48.200;16.338;2022-12-20T14:13:19;49.70;;;18.60;;
40052;SDS011;25758;48.200;16.338;2022-12-20T14:15:52;46.75;;;17.42;;
40052;SDS011;25758;48.200;16.338;2022-12-20T14:18:26;39.73;;;15.23;;
40052;SDS011;25758;48.200;16.338;2022-12-20T14:20:58;47.47;;;18.77;;
40052;SDS011;25758;48.200;16.338;2022-12-20T14:23:35;49.47;;;18.27;;
40052;SDS011;25758;48.200;16.338;2022-12-20T14:26:04;45.37;;;16.47;;
40052;SDS011;25758;48.200;16.338;2022-12-20T14:31:03;57.53;;;20.50;;
40052;SDS011;25758;48.200;16.338;2022-12-20T14:33:33;56.00;;;21.70;;
40052;SDS011;25758;48.200;16.338;2022-12-20T14:36:06;65.70;;;20.40;;
40052;SDS011;25758;48.200;16.338;2022-12-20T14:38:46;60.70;;;20.80;;
40052;SDS011;25758;48.200;16.338;2022-12-20T14:43:56;58.13;;;20.10;;
40052;SDS011;25758;48.200;16.338;2022-12-20T14:46:24;60.73;;;22.80;;
40052;SDS011;25758;48.200;16.338;2022-12-20T14:49:03;64.93;;;26.10;;
40052;SDS011;25758;48.200;16.338;2022-12-20T14:51:38;71.83;;;22.93;;
40052;SDS011;25758;48.200;16.338;2022-12-20T14:54:04;65.97;;;22.23;;
40052;SDS011;25758;48.200;16.338;2022-12-20T14:56:30;66.87;;;23.00;;
40052;SDS011;25758;48.200;16.338;2022-12-20T14:59:01;61.07;;;20.60;;
40052;SDS011;25758;48.200;16.338;2022-12-20T15:01:39;61.07;;;20.47;;
40052;SDS011;25758;48.200;16.338;2022-12-20T15:04:29;61.63;;;22.33;;
40052;SDS011;25758;48.200;16.338;2022-12-20T15:06:58;65.67;;;21.07;;
40052;SDS011;25758;48.200;16.338;2022-12-20T15:09:31;82.50;;;27.93;;
40052;SDS011;25758;48.200;16.338;2022-12-20T15:17:10;55.27;;;19.00;;
40052;SDS011;25758;48.200;16.338;2022-12-20T15:26:23;42.87;;;14.70;;
40052;SDS011;25758;48.200;16.338;2022-12-20T15:28:55;54.97;;;19.33;;
40052;SDS011;25758;48.200;16.338;2022-12-20T15:31:21;50.43;;;17.97;;
40052;SDS011;25758;48.200;16.338;2022-12-20T15:33:48;46.90;;;16.13;;
40052;SDS011;25758;48.200;16.338;2022-12-20T15:43:25;32.97;;;11.38;;
40052;SDS011;25758;48.200;16.338;2022-12-20T15:45:52;51.60;;;18.63;;
40052;SDS011;25758;48.200;16.338;2022-12-20T15:48:19;57.10;;;18.63;;
40052;SDS011;25758;48.200;16.338;2022-12-20T16:00:02;61.30;;;19.17;;
40052;SDS011;25758;48.200;16.338;2022-12-20T16:02:30;50.57;;;17.87;;
40052;SDS011;25758;48.200;16.338;2022-12-20T16:11:30;56.03;;;19.77;;
40052;SDS011;25758;48.200;16.338;2022-12-20T16:13:56;53.23;;;20.40;;
40052;SDS011;25758;48.200;16.338;2022-12-20T16:16:38;53.83;;;20.63;;
40052;SDS011;25758;48.200;16.338;2022-12-20T16:32:19;41.50;;;16.93;;
40052;SDS011;25758;48.200;16.338;2022-12-20T16:34:45;56.47;;;18.53;;
40052;SDS011;25758;48.200;16.338;2022-12-20T16:40:49;52.80;;;19.48;;
40052;SDS011;25758;48.200;16.338;2022-12-20T16:43:21;49.23;;;19.23;;
40052;SDS011;25758;48.200;16.338;2022-12-20T16:45:47;56.90;;;19.50;;
40052;SDS011;25758;48.200;16.338;2022-12-20T16:48:12;46.27;;;17.43;;
40052;SDS011;25758;48.200;16.338;2022-12-20T16:50:38;52.67;;;18.00;;
40052;SDS011;25758;48.200;16.338;2022-12-20T16:53:09;48.83;;;18.13;;
40052;SDS011;25758;48.200;16.338;2022-12-20T16:55:38;61.63;;;18.63;;
40052;SDS011;25758;48.200;16.338;2022-12-20T16:58:07;46.83;;;17.83;;
40052;SDS011;25758;48.200;16.338;2022-12-20T17:00:34;50.37;;;17.90;;
40052;SDS011;25758;48.200;16.338;2022-12-20T17:03:01;50.70;;;19.33;;
40052;SDS011;25758;48.200;16.338;2022-12-20T17:05:28;47.70;;;17.20;;
40052;SDS011;25758;48.200;16.338;2022-12-20T17:11:30;74.53;;;19.60;;
40052;SDS011;25758;48.200;16.338;2022-12-20T17:27:50;58.57;;;19.87;;
40052;SDS011;25758;48.200;16.338;2022-12-20T17:30:16;51.60;;;17.20;;
40052;SDS011;25758;48.200;16.338;2022-12-20T17:32:42;47.83;;;19.67;;
40052;SDS011;25758;48.200;16.338;2022-12-20T17:42:11;50.70;;;17.63;;
40052;SDS011;25758;48.200;16.338;2022-12-20T17:44:43;50.88;;;19.38;;
40052;SDS011;25758;48.200;16.338;2022-12-20T17:47:10;50.23;;;19.47;;
40052;SDS011;25758;48.200;16.338;2022-12-20T17:49:36;48.17;;;17.70;;
40052;SDS011;25758;48.200;16.338;2022-12-20T17:55:45;47.27;;;18.97;;
40052;SDS011;25758;48.200;16.338;2022-12-20T17:58:13;48.00;;;20.03;;
40052;SDS011;25758;48.200;16.338;2022-12-20T18:00:39;48.70;;;16.97;;
40052;SDS011;25758;48.200;16.338;2022-12-20T18:03:05;48.17;;;18.97;;
40052;SDS011;25758;48.200;16.338;2022-12-20T18:08:31;49.10;;;16.90;;
40052;SDS011;25758;48.200;16.338;2022-12-20T18:14:18;40.60;;;16.70;;
40052;SDS011;25758;48.200;16.338;2022-12-20T18:37:46;40.07;;;16.33;;
40052;SDS011;25758;48.200;16.338;2022-12-20T18:40:13;50.10;;;17.60;;
40052;SDS011;25758;48.200;16.338;2022-12-20T18:42:39;39.27;;;17.43;;
40052;SDS011;25758;48.200;16.338;2022-12-20T18:45:05;43.87;;;16.73;;
40052;SDS011;25758;48.200;16.338;2022-12-20T18:57:32;42.97;;;15.53;;
40052;SDS011;25758;48.200;16.338;2022-12-20T18:59:58;44.77;;;16.60;;
40052;SDS011;25758;48.200;16.338;2022-12-20T22:12:07;37.53;;;15.83;;
40052;SDS011;25758;48.200;16.338;2022-12-20T22:14:32;33.70;;;13.53;;
40052;SDS011;25758;48.200;16.338;2022-12-20T22:16:58;37.30;;;15.13;;
40052;SDS011;25758;48.200;16.338;2022-12-20T22:35:40;23.43;;;11.53;;
40052;SDS011;25758;48.200;16.338;2022-12-20T22:38:06;31.67;;;12.63;;
40052;SDS011;25758;48.200;16.338;2022-12-20T22:44:16;31.13;;;12.80;;
40052;SDS011;25758;48.200;16.338;2022-12-20T22:56:12;36.03;;;12.73;;
40052;SDS011;25758;48.200;16.338;2022-12-20T22:58:38;33.63;;;14.37;;
40052;SDS011;25758;48.200;16.338;2022-12-20T23:01:06;39.37;;;17.10;;
40052;SDS011;25758;48.200;16.338;2022-12-20T23:03:34;44.57;;;16.90;;
